To NAV CANADA Home Page Login to a new session Search on AWWS site Feedback and Comments Disclaimer Vers la page française équivalente Tips FAQ What's new on the site To the Forecasts and Observations / NOTAM section To "File a Flight Plan" website Publications and other links Update of the User's profile FIC Telephone Numbers My Weather Data Folder Route Weather Data Regional Weather Data Local Weather Data To the Forecasts and Observations / NOTAM section
Request Generated 06/26/2017 at 03:29:51 UTC . Weather information available at that time is displayed.

METAR/TAF

HAVRE ST-PIERRE/QC    (show WxCam)

METAR CYGV 260300Z AUTO 24004KT 9SM SCT240 09/07 A2964 RMK SLP041=
METAR CYGV 260200Z AUTO 25007KT 9SM SCT240 10/07 A2965 RMK SLP044=
METAR CYGV 260100Z AUTO 24007KT 9SM SCT250 12/07 A2965 RMK SLP042=

TAF CYGV 260138Z 2602/2614 24007KT P6SM SCT240
BECMG 2604/2606 VRB03KT
FM261200 32005KT P6SM FEW240
BECMG 2612/2614 25012KT
RMK FCST BASED ON AUTO OBS. NXT FCST BY 260800Z=
Your time UTC time
Weather data provided by Environment Canada and NAV CANADA